createdAt,value
2018-09-28T00:00:47.551Z,73.90
2018-09-28T00:03:15.219Z,74.60
2018-09-28T00:05:42.851Z,73.90
2018-09-28T00:08:10.440Z,74.10
2018-09-28T00:10:38.103Z,74.20
2018-09-28T00:13:05.709Z,74.80
2018-09-28T00:15:33.319Z,74.80
2018-09-28T00:18:01.010Z,75.00
2018-09-28T00:20:28.657Z,74.90
2018-09-28T00:22:56.300Z,74.50
2018-09-28T00:25:23.970Z,74.90
2018-09-28T00:27:51.655Z,75.70
2018-09-28T00:30:19.303Z,75.50
2018-09-28T00:32:46.961Z,75.40
2018-09-28T00:35:14.612Z,75.40
2018-09-28T00:37:42.276Z,74.90
2018-09-28T00:40:10.172Z,74.70
2018-09-28T00:42:37.967Z,74.50
2018-09-28T00:45:05.649Z,74.60
2018-09-28T00:47:33.249Z,74.70
2018-09-28T00:50:00.900Z,74.70
2018-09-28T00:52:28.556Z,74.70
2018-09-28T00:54:56.258Z,74.90
2018-09-28T00:57:23.932Z,75.00
2018-09-28T00:59:51.585Z,75.50
2018-09-28T01:02:19.215Z,75.00
2018-09-28T01:04:46.931Z,75.50
2018-09-28T01:07:14.488Z,75.30
2018-09-28T01:09:42.087Z,75.20
2018-09-28T01:12:09.759Z,75.60
2018-09-28T01:14:37.415Z,75.10
2018-09-28T01:17:05.073Z,75.80
2018-09-28T01:19:32.767Z,75.80
2018-09-28T01:22:00.398Z,75.20
2018-09-28T01:24:28.080Z,75.20
2018-09-28T01:26:55.727Z,75.40
2018-09-28T01:29:23.417Z,75.40
2018-09-28T01:31:51.055Z,75.40
2018-09-28T01:34:18.756Z,75.40
2018-09-28T01:36:46.356Z,75.30
2018-09-28T01:39:13.946Z,75.50
2018-09-28T01:41:41.600Z,75.70
2018-09-28T01:44:09.511Z,75.80
2018-09-28T01:46:37.134Z,76.00
2018-09-28T01:49:04.796Z,75.90
2018-09-28T01:51:32.432Z,77.40
2018-09-28T01:54:00.123Z,76.70
2018-09-28T01:56:27.775Z,77.20
2018-09-28T01:58:55.453Z,77.40
2018-09-28T02:01:23.068Z,77.50
2018-09-28T02:03:50.658Z,77.60
2018-09-28T02:06:18.297Z,77.50
2018-09-28T02:08:45.893Z,77.80
2018-09-28T02:11:13.547Z,77.30
2018-09-28T02:13:41.186Z,77.70
2018-09-28T02:16:08.895Z,77.70
2018-09-28T02:18:36.531Z,77.60
2018-09-28T02:21:04.195Z,77.70
2018-09-28T02:23:31.832Z,77.30
2018-09-28T02:25:59.432Z,77.20
2018-09-28T02:28:27.049Z,77.50
2018-09-28T02:30:54.617Z,77.70
2018-09-28T02:33:22.309Z,77.50
2018-09-28T02:35:50.019Z,77.70
2018-09-28T02:38:17.629Z,77.70
2018-09-28T02:40:45.280Z,77.60
2018-09-28T02:43:12.950Z,77.80
2018-09-28T02:45:40.612Z,77.80
2018-09-28T02:48:08.280Z,78.00
2018-09-28T02:50:35.967Z,77.90
2018-09-28T02:53:03.640Z,77.80
2018-09-28T02:55:31.243Z,77.70
2018-09-28T02:57:59.431Z,77.80
2018-09-28T03:00:27.783Z,77.90
2018-09-28T03:02:55.372Z,78.10
2018-09-28T03:05:23.063Z,78.00
2018-09-28T03:07:50.716Z,78.30
2018-09-28T03:10:18.393Z,77.90
2018-09-28T03:12:46.020Z,78.20
2018-09-28T03:15:14.529Z,78.40
2018-09-28T03:17:42.140Z,79.10
2018-09-28T03:20:09.811Z,78.80
2018-09-28T03:22:37.496Z,78.40
2018-09-28T03:25:05.137Z,78.70
2018-09-28T03:27:32.801Z,78.60
2018-09-28T03:30:00.452Z,78.50
2018-09-28T03:32:28.154Z,78.40
2018-09-28T03:34:55.803Z,78.40
2018-09-28T03:37:23.453Z,78.50
2018-09-28T03:39:51.132Z,79.20
2018-09-28T03:42:18.780Z,78.50
2018-09-28T03:44:46.424Z,78.50
2018-09-28T03:47:14.123Z,78.50
2018-09-28T03:49:41.757Z,78.60
2018-09-28T03:52:09.421Z,78.80
2018-09-28T03:54:37.125Z,79.40
2018-09-28T03:57:04.754Z,79.20
2018-09-28T03:59:32.404Z,78.60
2018-09-28T04:02:00.083Z,78.90
2018-09-28T04:04:27.733Z,78.60
2018-09-28T04:06:55.471Z,78.90
2018-09-28T04:09:23.072Z,78.70
2018-09-28T04:11:50.750Z,79.00
2018-09-28T04:14:18.422Z,79.20
2018-09-28T04:16:46.077Z,79.40
2018-09-28T04:19:13.732Z,79.60
2018-09-28T04:21:46.841Z,79.50
2018-09-28T04:24:14.373Z,80.10
2018-09-28T04:26:42.029Z,79.80
2018-09-28T04:29:09.890Z,79.90
2018-09-28T04:31:37.569Z,80.20
2018-09-28T04:34:05.225Z,80.00
2018-09-28T04:36:32.899Z,81.30
2018-09-28T04:39:00.539Z,80.90
2018-09-28T04:41:28.247Z,80.20
2018-09-28T04:43:55.888Z,79.80
2018-09-28T04:46:23.567Z,79.90
2018-09-28T04:48:51.253Z,80.50
2018-09-28T04:51:18.903Z,79.40
2018-09-28T04:53:46.873Z,79.40
2018-09-28T04:56:14.515Z,79.80
2018-09-28T04:58:42.185Z,79.70
2018-09-28T05:01:09.826Z,79.80
2018-09-28T05:03:37.483Z,80.10
2018-09-28T05:06:05.138Z,80.50
2018-09-28T05:08:32.823Z,80.60
2018-09-28T05:11:00.476Z,80.90
2018-09-28T05:13:28.304Z,80.70
2018-09-28T05:15:55.913Z,80.30
2018-09-28T05:18:23.626Z,80.10
2018-09-28T05:20:51.263Z,80.10
2018-09-28T05:23:19.007Z,80.30
2018-09-28T05:25:46.742Z,80.50
2018-09-28T05:28:14.464Z,80.40
2018-09-28T05:30:44.970Z,80.60
2018-09-28T05:33:09.642Z,80.40
2018-09-28T05:35:37.269Z,80.50
2018-09-28T05:38:05.024Z,81.30
2018-09-28T05:40:32.834Z,83.00
2018-09-28T05:43:00.500Z,80.70
2018-09-28T05:45:28.173Z,79.90
2018-09-28T05:47:55.937Z,80.00
2018-09-28T05:50:23.592Z,80.40
2018-09-28T05:52:51.263Z,80.00
2018-09-28T05:55:19.047Z,80.60
2018-09-28T05:57:46.692Z,80.10
2018-09-28T06:00:19.908Z,79.50
2018-09-28T06:02:53.075Z,79.40
2018-09-28T06:05:26.272Z,79.10
2018-09-28T06:07:53.972Z,79.10
2018-09-28T06:10:21.663Z,78.80
2018-09-28T06:12:49.344Z,78.90
2018-09-28T06:15:17.048Z,79.00
2018-09-28T06:17:44.726Z,78.80
2018-09-28T06:20:12.514Z,78.90
2018-09-28T06:22:40.234Z,77.30
2018-09-28T06:25:08.060Z,77.10
2018-09-28T06:27:35.723Z,76.70
2018-09-28T06:30:03.466Z,75.60
2018-09-28T06:32:31.112Z,75.00
2018-09-28T06:34:58.824Z,74.00
2018-09-28T06:37:26.439Z,73.10
2018-09-28T06:39:54.063Z,71.90
2018-09-28T06:42:21.896Z,71.40
2018-09-28T06:44:49.721Z,70.20
2018-09-28T06:47:17.316Z,69.40
2018-09-28T06:49:45.033Z,68.20
2018-09-28T06:52:12.741Z,67.60
2018-09-28T06:54:40.550Z,66.70
2018-09-28T06:57:08.165Z,65.80
2018-09-28T06:59:35.912Z,64.50
2018-09-28T07:02:04.624Z,63.20
2018-09-28T07:04:32.391Z,62.70
2018-09-28T07:07:00.083Z,61.70
2018-09-28T07:09:27.802Z,60.10
2018-09-28T07:11:55.420Z,59.60
2018-09-28T07:14:24.076Z,59.30
2018-09-28T07:16:51.838Z,58.80
2018-09-28T07:19:19.391Z,58.10
2018-09-28T07:21:48.144Z,57.60
2018-09-28T07:24:16.827Z,57.10
2018-09-28T07:26:44.443Z,57.40
2018-09-28T07:29:12.124Z,57.00
2018-09-28T07:31:39.828Z,56.40
2018-09-28T07:34:07.536Z,56.60
2018-09-28T07:36:35.491Z,56.80
2018-09-28T07:39:02.999Z,56.40
2018-09-28T07:41:30.561Z,57.10
2018-09-28T07:43:58.351Z,55.60
2018-09-28T07:46:26.046Z,55.60
2018-09-28T07:48:54.412Z,55.80
2018-09-28T07:51:22.876Z,57.00
2018-09-28T07:53:52.253Z,55.60
2018-09-28T07:56:21.741Z,55.40
2018-09-28T07:58:50.377Z,56.00
2018-09-28T08:01:18.826Z,54.50
2018-09-28T08:03:47.257Z,54.10
2018-09-28T08:06:15.629Z,55.60
2018-09-28T08:08:43.963Z,54.70
2018-09-28T08:11:12.372Z,54.00
2018-09-28T08:13:40.796Z,53.90
2018-09-28T08:16:09.260Z,53.90
2018-09-28T08:18:37.688Z,50.50
2018-09-28T08:21:06.338Z,50.90
2018-09-28T08:23:34.783Z,50.40
2018-09-28T08:26:03.187Z,50.00
2018-09-28T08:28:31.556Z,49.10
2018-09-28T08:30:59.925Z,47.20
2018-09-28T08:33:28.384Z,47.00
2018-09-28T08:35:56.812Z,48.10
2018-09-28T08:38:25.305Z,48.30
2018-09-28T08:40:54.019Z,46.20
2018-09-28T08:43:22.729Z,47.40
2018-09-28T08:45:51.172Z,46.90
2018-09-28T08:48:19.596Z,47.80
2018-09-28T08:50:48.003Z,47.80
2018-09-28T08:53:16.294Z,46.30
2018-09-28T08:55:44.694Z,45.20
2018-09-28T08:58:13.055Z,45.40
2018-09-28T09:00:41.451Z,45.70
2018-09-28T09:03:09.916Z,45.30
2018-09-28T09:05:38.296Z,45.80
2018-09-28T09:08:06.882Z,45.20
2018-09-28T09:10:35.293Z,45.10
2018-09-28T09:13:04.716Z,43.60
2018-09-28T09:15:33.060Z,44.50
2018-09-28T09:18:01.433Z,44.60
2018-09-28T09:20:29.781Z,42.40
2018-09-28T09:22:58.170Z,43.90
2018-09-28T09:25:27.067Z,43.50
2018-09-28T09:27:56.371Z,43.10
2018-09-28T09:30:24.774Z,43.50
2018-09-28T09:32:53.257Z,42.00
2018-09-28T09:35:21.901Z,43.00
2018-09-28T09:37:50.375Z,42.70
2018-09-28T09:40:18.872Z,41.60
2018-09-28T09:42:47.388Z,41.50
2018-09-28T09:45:15.680Z,40.40
2018-09-28T09:47:44.021Z,39.80
2018-09-28T09:50:12.429Z,41.90
2018-09-28T09:52:40.815Z,40.70
2018-09-28T09:55:09.218Z,41.00
2018-09-28T09:57:37.625Z,40.60
2018-09-28T10:00:06.201Z,40.90
2018-09-28T10:02:39.866Z,40.40
2018-09-28T10:05:08.289Z,40.20
2018-09-28T10:07:36.707Z,40.60
2018-09-28T10:10:05.115Z,39.90
2018-09-28T10:12:33.586Z,41.10
2018-09-28T10:15:01.818Z,38.20
2018-09-28T10:17:30.390Z,38.80
2018-09-28T10:19:58.859Z,37.90
2018-09-28T10:22:27.291Z,38.90
2018-09-28T10:24:55.699Z,40.50
2018-09-28T10:27:25.360Z,40.20
2018-09-28T10:29:54.051Z,37.70
2018-09-28T10:32:22.485Z,38.60
2018-09-28T10:34:50.901Z,38.60
2018-09-28T10:37:19.394Z,37.30
2018-09-28T10:39:48.715Z,37.80
2018-09-28T10:42:23.880Z,38.50
2018-09-28T10:44:52.708Z,38.70
2018-09-28T10:47:22.181Z,38.80
2018-09-28T10:49:50.957Z,38.80
2018-09-28T10:52:20.315Z,39.00
2018-09-28T10:54:49.516Z,37.80
2018-09-28T10:57:18.074Z,38.60
2018-09-28T10:59:46.558Z,37.60
2018-09-28T11:02:14.963Z,39.10
2018-09-28T11:04:43.507Z,39.20
2018-09-28T11:07:11.973Z,38.90
2018-09-28T11:09:40.873Z,37.20
2018-09-28T11:12:09.392Z,39.10
2018-09-28T11:14:38.152Z,37.50
2018-09-28T11:17:06.579Z,38.70
2018-09-28T11:19:35.093Z,39.50
2018-09-28T11:22:03.751Z,38.60
2018-09-28T11:24:32.156Z,38.20
2018-09-28T11:27:00.748Z,39.00
2018-09-28T11:29:29.127Z,39.00
2018-09-28T11:31:57.570Z,38.20
2018-09-28T11:34:26.065Z,38.70
2018-09-28T11:36:54.475Z,37.50
2018-09-28T11:39:22.895Z,37.80
2018-09-28T11:41:51.316Z,37.40
2018-09-28T11:44:19.738Z,36.80
2018-09-28T11:46:48.172Z,38.50
2018-09-28T11:49:16.590Z,37.90
2018-09-28T11:51:45.104Z,37.20
2018-09-28T11:54:13.393Z,37.50
2018-09-28T11:56:41.738Z,38.30
2018-09-28T11:59:10.116Z,38.90
2018-09-28T12:01:38.520Z,37.40
2018-09-28T12:04:07.225Z,38.30
2018-09-28T12:06:35.811Z,37.80
2018-09-28T12:09:06.381Z,37.10
2018-09-28T12:11:34.748Z,37.10
2018-09-28T12:14:03.152Z,37.40
2018-09-28T12:16:31.652Z,37.80
2018-09-28T12:19:01.022Z,38.30
2018-09-28T12:21:29.461Z,38.40
2018-09-28T12:23:57.793Z,37.60
2018-09-28T12:26:26.285Z,38.10
2018-09-28T12:28:54.752Z,37.20
2018-09-28T12:31:23.153Z,36.10
2018-09-28T12:33:51.553Z,35.70
2018-09-28T12:36:20.042Z,36.80
2018-09-28T12:38:48.260Z,37.00
2018-09-28T12:41:16.559Z,36.60
2018-09-28T12:43:44.961Z,35.20
2018-09-28T12:46:13.323Z,35.90
2018-09-28T12:48:41.788Z,36.20
2018-09-28T12:51:10.089Z,36.10
2018-09-28T12:53:38.494Z,35.90
2018-09-28T12:56:06.907Z,36.60
2018-09-28T12:58:35.196Z,35.50
2018-09-28T13:01:03.703Z,35.70
2018-09-28T13:03:31.981Z,33.30
2018-09-28T13:06:00.346Z,33.20
2018-09-28T13:08:34.321Z,32.50
2018-09-28T13:11:02.624Z,31.40
2018-09-28T13:13:31.094Z,32.40
2018-09-28T13:15:59.655Z,33.40
2018-09-28T13:18:31.547Z,32.00
2018-09-28T13:20:59.869Z,34.30
2018-09-28T13:23:28.238Z,34.70
2018-09-28T13:28:31.417Z,35.00
2018-09-28T13:30:59.767Z,34.00
2018-09-28T13:33:28.128Z,35.80
2018-09-28T13:35:56.529Z,35.60
2018-09-28T13:38:24.986Z,35.70
2018-09-28T13:40:53.905Z,34.50
2018-09-28T13:43:23.296Z,34.80
2018-09-28T13:45:51.632Z,35.70
2018-09-28T13:48:21.010Z,36.30
2018-09-28T13:50:50.424Z,35.90
2018-09-28T13:53:18.724Z,37.10
2018-09-28T13:55:47.236Z,36.40
2018-09-28T13:58:15.713Z,35.60
2018-09-28T14:00:44.107Z,35.60
2018-09-28T14:03:12.779Z,36.80
2018-09-28T14:05:41.473Z,36.40
2018-09-28T14:08:09.944Z,36.10
2018-09-28T14:10:38.558Z,37.20
2018-09-28T14:13:07.341Z,37.20
2018-09-28T14:15:35.813Z,37.40
2018-09-28T14:18:04.342Z,37.20
2018-09-28T14:20:32.830Z,37.50
2018-09-28T14:23:02.904Z,37.60
2018-09-28T14:25:32.421Z,37.40
2018-09-28T14:28:01.294Z,37.70
2018-09-28T14:30:30.265Z,37.70
2018-09-28T14:32:59.006Z,37.50
2018-09-28T14:35:27.522Z,37.70
2018-09-28T14:37:56.769Z,37.80
2018-09-28T14:40:25.160Z,38.30
2018-09-28T14:42:53.552Z,38.40
2018-09-28T14:45:22.017Z,37.50
2018-09-28T14:47:50.475Z,36.80
2018-09-28T14:50:18.889Z,36.70
2018-09-28T14:52:47.371Z,35.80
2018-09-28T14:55:16.813Z,35.80
2018-09-28T14:57:45.173Z,35.60
2018-09-28T15:00:13.606Z,34.70
2018-09-28T15:02:44.989Z,35.00
2018-09-28T15:05:13.403Z,35.60
2018-09-28T15:07:41.790Z,40.10
2018-09-28T15:10:10.131Z,43.30
2018-09-28T15:12:39.207Z,45.00
2018-09-28T15:15:07.653Z,45.50
2018-09-28T15:17:36.311Z,46.30
2018-09-28T15:20:04.826Z,46.70
2018-09-28T15:22:33.288Z,47.00
2018-09-28T15:25:01.956Z,47.00
2018-09-28T15:27:30.521Z,47.10
2018-09-28T15:29:59.007Z,46.80
2018-09-28T15:32:27.457Z,46.60
2018-09-28T15:34:56.583Z,46.40
2018-09-28T15:37:25.162Z,47.00
2018-09-28T15:39:54.750Z,47.10
2018-09-28T15:42:23.416Z,47.20
2018-09-28T15:44:52.017Z,47.20
2018-09-28T15:47:20.679Z,47.30
2018-09-28T15:49:49.181Z,47.60
2018-09-28T15:52:17.610Z,47.80
2018-09-28T15:54:46.000Z,48.30
2018-09-28T15:57:14.531Z,48.80
2018-09-28T15:59:42.979Z,49.80
2018-09-28T16:02:11.383Z,50.00
2018-09-28T16:04:39.703Z,50.20
2018-09-28T16:07:08.165Z,50.60
2018-09-28T16:09:36.619Z,50.20
2018-09-28T16:12:05.107Z,50.20
2018-09-28T16:14:33.775Z,50.80
2018-09-28T16:17:02.207Z,50.90
2018-09-28T16:19:30.666Z,51.10
2018-09-28T16:21:59.136Z,51.40
2018-09-28T16:24:27.436Z,52.00
2018-09-28T16:26:55.845Z,52.20
2018-09-28T16:29:24.561Z,53.20
2018-09-28T16:31:52.907Z,53.70
2018-09-28T16:34:21.488Z,54.20
2018-09-28T16:36:50.480Z,54.60
2018-09-28T16:39:18.885Z,54.60
2018-09-28T16:41:47.247Z,54.90
2018-09-28T16:44:15.683Z,55.30
2018-09-28T16:46:44.088Z,55.60
2018-09-28T16:49:12.439Z,55.60
2018-09-28T16:51:40.816Z,55.80
2018-09-28T16:54:09.199Z,56.50
2018-09-28T16:56:37.703Z,56.60
2018-09-28T16:59:06.238Z,56.80
2018-09-28T17:01:34.555Z,57.10
2018-09-28T17:04:02.932Z,57.30
2018-09-28T17:06:31.348Z,57.50
2018-09-28T17:08:59.757Z,57.80
2018-09-28T17:11:28.205Z,58.30
2018-09-28T17:13:56.613Z,58.30
2018-09-28T17:16:25.036Z,58.90
2018-09-28T17:18:53.422Z,59.30
2018-09-28T17:21:21.813Z,59.60
2018-09-28T17:23:50.196Z,60.00
2018-09-28T17:26:18.575Z,60.30
2018-09-28T17:28:46.928Z,60.40
2018-09-28T17:31:15.349Z,60.90
2018-09-28T17:33:43.708Z,61.90
2018-09-28T17:36:12.248Z,62.00
2018-09-28T17:38:40.653Z,62.40
2018-09-28T17:41:09.116Z,62.60
2018-09-28T17:43:37.736Z,62.20
2018-09-28T17:46:06.354Z,62.50
2018-09-28T17:48:34.722Z,62.80
2018-09-28T17:51:03.163Z,63.30
2018-09-28T17:53:31.641Z,63.50
2018-09-28T17:56:00.031Z,63.40
2018-09-28T17:58:28.408Z,63.30
2018-09-28T18:00:56.764Z,63.90
2018-09-28T18:03:25.184Z,63.90
2018-09-28T18:05:53.518Z,63.80
2018-09-28T18:08:21.955Z,63.80
2018-09-28T18:10:51.182Z,64.30
2018-09-28T18:13:19.598Z,63.60
2018-09-28T18:15:48.024Z,64.00
2018-09-28T18:18:16.453Z,63.70
2018-09-28T18:20:44.922Z,63.80
2018-09-28T18:23:13.330Z,64.10
2018-09-28T18:25:41.782Z,63.90
2018-09-28T18:28:10.275Z,64.20
2018-09-28T18:30:38.743Z,63.20
2018-09-28T18:33:07.113Z,62.30
2018-09-28T18:35:35.487Z,62.60
2018-09-28T18:38:04.942Z,62.60
2018-09-28T18:40:34.176Z,62.60
2018-09-28T18:43:02.525Z,62.70
2018-09-28T18:45:30.890Z,63.20
2018-09-28T18:47:59.276Z,63.40
2018-09-28T18:50:27.672Z,64.10
2018-09-28T18:52:56.129Z,64.30
2018-09-28T18:55:25.456Z,63.90
2018-09-28T18:57:53.889Z,62.60
2018-09-28T19:00:28.750Z,62.30
2018-09-28T19:02:57.096Z,61.80
2018-09-28T19:05:25.467Z,61.60
2018-09-28T19:07:54.348Z,61.20
2018-09-28T19:10:22.634Z,59.80
2018-09-28T19:12:51.079Z,58.70
2018-09-28T19:15:19.316Z,57.80
2018-09-28T19:17:47.920Z,57.10
2018-09-28T19:20:16.302Z,56.70
2018-09-28T19:22:44.682Z,55.00
2018-09-28T19:25:13.039Z,52.50
2018-09-28T19:27:41.452Z,53.00
2018-09-28T19:30:09.971Z,52.00
2018-09-28T19:32:38.276Z,51.50
2018-09-28T19:35:07.524Z,51.40
2018-09-28T19:37:35.898Z,51.10
2018-09-28T19:40:04.517Z,50.70
2018-09-28T19:42:32.832Z,50.20
2018-09-28T19:45:01.229Z,50.90
2018-09-28T19:47:29.714Z,50.60
2018-09-28T19:49:58.022Z,50.10
2018-09-28T19:52:26.323Z,50.20
2018-09-28T19:54:54.663Z,50.40
2018-09-28T19:57:22.993Z,50.20
2018-09-28T19:59:51.391Z,50.30
2018-09-28T20:02:19.699Z,50.30
2018-09-28T20:04:49.142Z,50.60
2018-09-28T20:07:17.483Z,50.60
2018-09-28T20:09:45.780Z,50.60
2018-09-28T20:12:14.137Z,50.30
2018-09-28T20:14:42.537Z,50.10
2018-09-28T20:17:10.916Z,50.00
2018-09-28T20:19:39.268Z,50.20
2018-09-28T20:22:10.284Z,50.30
2018-09-28T20:24:38.590Z,50.40
2018-09-28T20:27:06.967Z,50.50
2018-09-28T20:29:35.329Z,50.40
2018-09-28T20:32:03.693Z,50.40
2018-09-28T20:34:32.029Z,50.30
2018-09-28T20:37:00.405Z,50.50
2018-09-28T20:39:28.761Z,50.60
2018-09-28T20:41:57.111Z,50.10
2018-09-28T20:44:25.434Z,50.80
2018-09-28T20:46:53.802Z,51.10
2018-09-28T20:49:22.122Z,50.90
2018-09-28T20:51:50.416Z,51.30
2018-09-28T20:54:18.762Z,51.30
2018-09-28T20:56:47.080Z,51.70
2018-09-28T20:59:15.394Z,51.80
2018-09-28T21:01:43.822Z,51.60
2018-09-28T21:04:12.144Z,51.60
2018-09-28T21:06:40.464Z,51.70
2018-09-28T21:09:09.609Z,51.90
2018-09-28T21:11:37.956Z,51.90
2018-09-28T21:14:06.409Z,52.10
2018-09-28T21:16:34.793Z,52.20
2018-09-28T21:19:03.123Z,51.70
2018-09-28T21:21:31.465Z,50.60
2018-09-28T21:23:59.754Z,51.00
2018-09-28T21:26:28.047Z,50.00
2018-09-28T21:28:56.399Z,49.30
2018-09-28T21:31:24.773Z,49.40
2018-09-28T21:33:53.118Z,49.20
2018-09-28T21:36:21.449Z,49.10
2018-09-28T21:38:49.749Z,49.70
2018-09-28T21:41:18.109Z,50.10
2018-09-28T21:43:46.440Z,50.60
2018-09-28T21:46:14.764Z,50.60
2018-09-28T21:48:43.056Z,50.80
2018-09-28T21:51:11.351Z,51.00
2018-09-28T21:53:39.669Z,51.10
2018-09-28T21:56:07.995Z,51.30
2018-09-28T21:58:36.328Z,51.30
2018-09-28T22:01:04.654Z,51.50
2018-09-28T22:03:32.957Z,52.00
2018-09-28T22:06:01.280Z,51.30
2018-09-28T22:08:29.581Z,52.00
2018-09-28T22:10:57.899Z,51.40
2018-09-28T22:13:26.223Z,51.10
2018-09-28T22:15:54.552Z,51.50
2018-09-28T22:18:22.876Z,51.40
2018-09-28T22:20:51.308Z,51.10
2018-09-28T22:23:19.680Z,51.10
2018-09-28T22:25:48.018Z,51.10
2018-09-28T22:28:16.372Z,51.40
2018-09-28T22:30:44.680Z,51.70
2018-09-28T22:33:12.960Z,51.90
2018-09-28T22:35:41.281Z,52.10
2018-09-28T22:38:09.571Z,52.40
2018-09-28T22:40:37.893Z,52.10
2018-09-28T22:43:06.453Z,52.00
2018-09-28T22:45:34.789Z,51.80
2018-09-28T22:48:03.130Z,52.20
2018-09-28T22:50:31.444Z,52.50
2018-09-28T22:52:59.741Z,52.50
2018-09-28T22:55:28.045Z,53.20
2018-09-28T22:57:56.360Z,53.10
2018-09-28T23:00:24.656Z,53.10
2018-09-28T23:02:52.946Z,53.30
2018-09-28T23:05:21.263Z,53.20
2018-09-28T23:07:49.583Z,53.10
2018-09-28T23:10:17.912Z,53.10
2018-09-28T23:12:46.273Z,53.30
2018-09-28T23:15:14.577Z,53.20
2018-09-28T23:17:42.936Z,53.00
2018-09-28T23:20:11.212Z,53.10
2018-09-28T23:22:39.606Z,53.40
2018-09-28T23:25:07.893Z,53.50
2018-09-28T23:27:36.209Z,53.40
2018-09-28T23:30:04.600Z,53.40
2018-09-28T23:32:32.882Z,53.50
2018-09-28T23:35:01.240Z,53.60
2018-09-28T23:37:29.567Z,54.10
2018-09-28T23:39:57.939Z,54.40
2018-09-28T23:42:26.243Z,54.50
2018-09-28T23:44:54.587Z,54.30
2018-09-28T23:47:22.952Z,54.40
2018-09-28T23:49:51.241Z,54.50
2018-09-28T23:52:19.523Z,55.30
2018-09-28T23:54:47.808Z,55.90
2018-09-28T23:57:16.187Z,56.10
2018-09-28T23:59:44.531Z,56.50
